Time;durP1;ratioP1;P1;durP2;ratioP2;P2;SDS_P1;SDS_P2;PMS_P1;PMS_P2;Temp;Humidity;BMP_temperature;BMP_pressure;BME280_temperature;BME280_humidity;BME280_pressure;Samples;Min_cycle;Max_cycle;Signal;HPM_P1;HPM_P2
2023/10/31 00:02:07;;;;;;;4.93;4.53;;;12.10;99.90;;;;;;5017626;28;20246;-80
2023/10/31 00:04:33;;;;;;;5.05;4.65;;;12.10;99.90;;;;;;5015949;28;20186;-79
2023/10/31 00:06:58;;;;;;;5.28;4.63;;;12.10;99.90;;;;;;5014952;28;20195;-79
2023/10/31 00:09:24;;;;;;;5.30;4.40;;;12.10;99.90;;;;;;5015287;28;20191;-79
2023/10/31 00:11:50;;;;;;;4.35;3.95;;;12.20;99.90;;;;;;5016823;28;20206;-79
2023/10/31 00:14:16;;;;;;;4.07;3.67;;;12.10;99.90;;;;;;5018155;28;20182;-79
2023/10/31 00:16:42;;;;;;;3.80;3.50;;;12.20;99.90;;;;;;5016473;28;20231;-79
2023/10/31 00:19:07;;;;;;;3.80;3.38;;;12.20;99.90;;;;;;5018245;28;20191;-79
2023/10/31 00:21:33;;;;;;;3.42;3.17;;;12.20;99.90;;;;;;5018194;28;20219;-79
2023/10/31 00:23:59;;;;;;;3.50;3.20;;;12.20;99.90;;;;;;5017717;28;20182;-79
2023/10/31 00:26:24;;;;;;;3.20;3.00;;;12.10;99.90;;;;;;5017920;28;20195;-79
2023/10/31 00:28:50;;;;;;;3.85;3.28;;;12.10;99.90;;;;;;5018461;28;20183;-79
2023/10/31 00:31:15;;;;;;;3.00;2.80;;;12.10;99.90;;;;;;5018554;28;20184;-79
2023/10/31 00:33:41;;;;;;;2.70;2.50;;;12.10;99.90;;;;;;5018761;28;20187;-79
2023/10/31 00:36:07;;;;;;;2.65;2.40;;;12.00;99.90;;;;;;5017662;28;20230;-79
2023/10/31 00:38:33;;;;;;;2.70;2.50;;;12.00;99.90;;;;;;5018048;28;20555;-79
2023/10/31 00:41:00;;;;;;;3.05;2.10;;;12.00;99.90;;;;;;5017192;28;20206;-79
2023/10/31 00:43:26;;;;;;;2.50;2.30;;;12.00;99.90;;;;;;5017326;28;20271;-79
2023/10/31 00:45:51;;;;;;;2.70;2.50;;;12.00;99.90;;;;;;5015081;28;20219;-78
2023/10/31 00:48:17;;;;;;;2.97;2.33;;;12.00;99.90;;;;;;5013370;28;20179;-78
2023/10/31 00:50:43;;;;;;;3.83;2.30;;;12.00;99.90;;;;;;5018533;28;20184;-78
2023/10/31 00:53:09;;;;;;;2.67;2.47;;;12.00;99.90;;;;;;5015509;28;20186;-78
2023/10/31 00:55:34;;;;;;;2.88;2.30;;;12.00;99.90;;;;;;5017116;28;20175;-79
2023/10/31 00:58:00;;;;;;;2.50;2.22;;;12.00;99.90;;;;;;5016653;28;20195;-79
2023/10/31 01:00:25;;;;;;;2.40;2.30;;;12.00;99.90;;;;;;5015426;28;20265;-78
2023/10/31 01:02:51;;;;;;;2.47;2.30;;;12.00;99.90;;;;;;5014596;28;20196;-78
2023/10/31 01:05:17;;;;;;;2.58;2.38;;;12.00;99.90;;;;;;5014175;28;20178;-78
2023/10/31 01:07:42;;;;;;;2.20;2.10;;;12.00;99.90;;;;;;5014042;28;20227;-79
2023/10/31 01:10:08;;;;;;;2.15;2.00;;;12.00;99.90;;;;;;5015101;28;20175;-79
2023/10/31 01:12:34;;;;;;;2.03;1.92;;;12.10;99.90;;;;;;5016936;28;20180;-79
2023/10/31 01:15:00;;;;;;;2.10;2.00;;;12.10;99.90;;;;;;5018426;28;20183;-79
2023/10/31 01:17:25;;;;;;;2.00;1.90;;;12.10;99.90;;;;;;5017179;28;20203;-79
2023/10/31 01:19:51;;;;;;;2.80;1.90;;;12.10;99.90;;;;;;5018158;28;20184;-79
2023/10/31 01:22:16;;;;;;;1.70;1.60;;;12.10;99.90;;;;;;5016508;28;20203;-79
2023/10/31 01:24:42;;;;;;;2.00;1.90;;;12.10;99.90;;;;;;5016664;28;20188;-79
2023/10/31 01:27:07;;;;;;;2.35;2.25;;;12.10;99.90;;;;;;5016261;28;20207;-79
2023/10/31 01:29:33;;;;;;;2.17;1.92;;;12.10;99.90;;;;;;5015803;28;20182;-79
2023/10/31 01:31:58;;;;;;;2.20;2.10;;;12.10;99.90;;;;;;5013591;28;20285;-79
2023/10/31 01:34:24;;;;;;;1.98;1.88;;;12.10;99.90;;;;;;5013494;28;20222;-79
2023/10/31 01:36:49;;;;;;;1.95;1.80;;;12.10;99.90;;;;;;5014481;28;20238;-79
2023/10/31 01:39:15;;;;;;;2.13;1.92;;;12.10;99.90;;;;;;5015864;28;20187;-79
2023/10/31 01:41:42;;;;;;;1.70;1.60;;;12.00;99.90;;;;;;5013240;28;20242;-78
2023/10/31 01:44:08;;;;;;;1.80;1.70;;;12.00;99.90;;;;;;5014075;28;20230;-78
2023/10/31 01:46:33;;;;;;;1.60;1.50;;;12.00;99.90;;;;;;5013959;28;20199;-79
2023/10/31 01:48:59;;;;;;;1.77;1.30;;;12.00;99.90;;;;;;5013812;28;20205;-79
2023/10/31 01:51:26;;;;;;;1.45;1.40;;;12.00;99.90;;;;;;5013499;28;20175;-78
2023/10/31 01:53:52;;;;;;;1.20;1.20;;;12.00;99.90;;;;;;5012909;28;20682;-78
2023/10/31 01:56:19;;;;;;;1.30;1.20;;;12.00;99.90;;;;;;5012587;28;20296;-78
2023/10/31 01:58:46;;;;;;;1.25;1.13;;;12.00;99.90;;;;;;5013707;28;20186;-78
2023/10/31 02:19:20;;;;;;;0.90;0.90;;;11.90;99.90;;;;;;5369387;23;20583;-87
2023/10/31 02:21:46;;;;;;;1.40;0.80;;;11.90;99.90;;;;;;5015933;28;20293;-87
2023/10/31 02:24:12;;;;;;;0.90;0.90;;;11.80;99.90;;;;;;5015572;28;20273;-87
2023/10/31 02:26:37;;;;;;;1.40;1.10;;;11.80;99.90;;;;;;5016147;28;20179;-87
2023/10/31 02:29:04;;;;;;;0.75;0.75;;;11.80;99.90;;;;;;5002741;28;20258;-87
2023/10/31 02:31:30;;;;;;;0.93;0.93;;;11.80;99.90;;;;;;4996614;28;20233;-87
2023/10/31 02:33:55;;;;;;;0.98;0.90;;;11.80;99.90;;;;;;4995974;28;20185;-87
2023/10/31 02:36:21;;;;;;;1.05;1.05;;;11.80;99.90;;;;;;4995744;28;20266;-87
2023/10/31 02:38:47;;;;;;;1.05;1.02;;;11.70;99.90;;;;;;4995666;28;20206;-88
2023/10/31 02:41:13;;;;;;;1.75;0.80;;;11.70;99.90;;;;;;4995846;28;20215;-87
2023/10/31 02:43:40;;;;;;;0.88;0.88;;;11.70;99.90;;;;;;4995905;28;20171;-86
2023/10/31 02:46:06;;;;;;;1.80;0.90;;;11.70;99.90;;;;;;4995794;28;20203;-87
2023/10/31 02:48:39;;;;;;;7.53;0.90;;;11.70;99.90;;;;;;4995582;28;20221;-86
2023/10/31 02:51:05;;;;;;;0.77;0.77;;;11.70;99.90;;;;;;4996775;28;20290;-87
2023/10/31 02:53:31;;;;;;;1.38;1.00;;;11.70;99.90;;;;;;4996636;28;20180;-87
2023/10/31 02:55:56;;;;;;;0.90;0.90;;;11.60;99.90;;;;;;4995653;28;20187;-87
2023/10/31 02:58:22;;;;;;;0.98;0.98;;;11.60;99.90;;;;;;4996690;28;20264;-87
2023/10/31 03:00:48;;;;;;;3.85;1.10;;;11.70;99.90;;;;;;4995501;28;20284;-87
2023/10/31 03:03:13;;;;;;;2.05;0.90;;;11.60;99.90;;;;;;4995590;28;20644;-87
2023/10/31 03:05:39;;;;;;;3.47;0.80;;;11.60;99.90;;;;;;4995457;28;20175;-87
2023/10/31 03:08:04;;;;;;;0.90;0.90;;;11.60;99.90;;;;;;4996813;28;20253;-87
2023/10/31 03:10:30;;;;;;;1.58;1.15;;;11.50;99.90;;;;;;4998981;28;20183;-86
2023/10/31 03:12:56;;;;;;;0.95;0.95;;;11.40;99.90;;;;;;4999041;28;20183;-86
2023/10/31 03:15:21;;;;;;;3.65;1.10;;;11.40;99.90;;;;;;4998926;28;20179;-87
2023/10/31 03:17:47;;;;;;;4.53;0.90;;;11.30;99.90;;;;;;4998922;28;20200;-86
2023/10/31 03:20:12;;;;;;;1.08;0.95;;;11.30;99.90;;;;;;4998843;28;20253;-87
2023/10/31 03:22:38;;;;;;;0.93;0.93;;;11.20;99.90;;;;;;4999996;28;20179;-87
2023/10/31 03:25:04;;;;;;;1.17;0.95;;;11.10;99.90;;;;;;4999174;28;20172;-87
2023/10/31 03:27:30;;;;;;;2.00;1.00;;;11.00;99.90;;;;;;4998910;28;20632;-87
2023/10/31 03:29:55;;;;;;;0.70;0.70;;;10.90;99.90;;;;;;4999523;28;20175;-87
2023/10/31 03:32:21;;;;;;;0.93;0.93;;;10.90;99.90;;;;;;4998739;28;20188;-87
2023/10/31 03:34:46;;;;;;;1.45;1.00;;;11.00;99.90;;;;;;4999365;28;20211;-86
2023/10/31 03:37:12;;;;;;;2.55;1.20;;;11.00;99.90;;;;;;4998480;28;20171;-86
2023/10/31 03:39:37;;;;;;;1.83;0.88;;;11.00;99.90;;;;;;4999272;28;20318;-87
2023/10/31 03:42:05;;;;;;;2.25;1.10;;;11.10;99.90;;;;;;4999798;28;20213;-87
2023/10/31 03:44:30;;;;;;;1.20;1.00;;;11.10;99.90;;;;;;4999687;28;20176;-87
2023/10/31 03:46:56;;;;;;;1.10;1.00;;;11.10;99.90;;;;;;4999098;28;20178;-86
2023/10/31 03:49:22;;;;;;;2.28;1.33;;;11.10;99.90;;;;;;4998751;28;20191;-87
2023/10/31 03:51:47;;;;;;;0.93;0.93;;;11.20;99.90;;;;;;4999344;28;20178;-86
2023/10/31 03:54:13;;;;;;;4.60;1.00;;;11.20;99.90;;;;;;4999521;28;20218;-86
2023/10/31 03:56:43;;;;;;;1.00;1.00;;;11.20;99.90;;;;;;4998710;28;20302;-86
2023/10/31 03:59:09;;;;;;;2.05;0.80;;;11.20;99.90;;;;;;4999481;28;20207;-87
2023/10/31 04:01:35;;;;;;;2.22;0.90;;;11.10;99.90;;;;;;4998854;28;20230;-87
2023/10/31 04:04:02;;;;;;;0.88;0.88;;;11.10;99.90;;;;;;4998996;28;20182;-87
2023/10/31 04:06:40;;;;;;;0.95;0.90;;;11.10;99.90;;;;;;4998890;28;20178;-87
2023/10/31 04:09:06;;;;;;;0.95;0.88;;;11.00;99.90;;;;;;4998424;28;20191;-87
2023/10/31 04:11:32;;;;;;;1.35;1.00;;;11.00;99.90;;;;;;4998210;28;20190;-87
2023/10/31 04:13:57;;;;;;;1.13;0.80;;;10.90;99.90;;;;;;4998529;28;20175;-87
2023/10/31 04:16:23;;;;;;;1.55;1.10;;;10.90;99.90;;;;;;4998214;28;20282;-87
2023/10/31 04:18:49;;;;;;;1.17;1.00;;;10.90;99.90;;;;;;4998420;28;20223;-87
2023/10/31 04:21:14;;;;;;;1.10;0.90;;;10.90;99.90;;;;;;4998862;28;20211;-87
2023/10/31 04:23:40;;;;;;;0.90;0.90;;;10.80;99.90;;;;;;4998244;28;20176;-87
2023/10/31 04:26:05;;;;;;;2.97;1.10;;;10.80;99.90;;;;;;4998258;28;20654;-87
2023/10/31 04:28:31;;;;;;;0.88;0.88;;;10.90;99.90;;;;;;4997941;28;20199;-87
2023/10/31 04:30:57;;;;;;;0.80;0.80;;;10.90;99.90;;;;;;4997697;28;20183;-86
2023/10/31 04:33:22;;;;;;;1.23;1.17;;;10.90;99.90;;;;;;4997525;28;20675;-86
2023/10/31 04:35:48;;;;;;;2.35;0.90;;;10.80;99.90;;;;;;4997861;28;20219;-87
2023/10/31 04:38:14;;;;;;;0.90;0.90;;;10.80;99.90;;;;;;4997306;28;20632;-87
2023/10/31 04:40:39;;;;;;;1.20;1.00;;;10.70;99.90;;;;;;4997265;28;20265;-87
2023/10/31 04:43:05;;;;;;;1.10;1.10;;;10.70;99.90;;;;;;4997196;28;20176;-87
2023/10/31 04:45:30;;;;;;;3.20;0.80;;;10.70;99.90;;;;;;4998147;28;20202;-87
2023/10/31 04:47:56;;;;;;;1.05;1.00;;;10.70;99.90;;;;;;4997951;28;20207;-87
2023/10/31 04:50:22;;;;;;;1.00;0.85;;;10.70;99.90;;;;;;4997315;28;20604;-87
2023/10/31 04:52:47;;;;;;;0.80;0.80;;;10.70;99.90;;;;;;4997393;28;20184;-87
2023/10/31 04:55:13;;;;;;;1.48;0.85;;;10.70;99.90;;;;;;4997393;28;20233;-87
2023/10/31 04:57:38;;;;;;;0.82;0.82;;;10.70;99.90;;;;;;4997374;28;20187;-87
2023/10/31 05:00:06;;;;;;;0.90;0.90;;;10.70;99.90;;;;;;4996950;28;20544;-87
2023/10/31 05:02:32;;;;;;;0.80;0.80;;;10.70;99.90;;;;;;4997014;28;20214;-87
2023/10/31 05:04:58;;;;;;;1.27;1.00;;;10.60;99.90;;;;;;4997290;28;20186;-86
2023/10/31 05:07:24;;;;;;;1.02;0.80;;;10.60;99.90;;;;;;4997794;28;20180;-87
2023/10/31 05:09:49;;;;;;;1.80;0.80;;;10.60;99.90;;;;;;4996878;28;20180;-87
2023/10/31 05:12:15;;;;;;;1.15;0.80;;;10.60;99.90;;;;;;4997165;28;20198;-87
2023/10/31 05:14:41;;;;;;;1.45;0.77;;;10.60;99.90;;;;;;4997161;28;20179;-87
2023/10/31 05:17:06;;;;;;;3.10;0.90;;;10.60;99.90;;;;;;4996748;28;20183;-87
2023/10/31 05:19:32;;;;;;;0.80;0.80;;;10.60;99.90;;;;;;4996560;28;20223;-87
2023/10/31 05:21:57;;;;;;;1.15;0.82;;;10.70;99.90;;;;;;4996509;28;20207;-87
2023/10/31 05:24:23;;;;;;;1.40;1.17;;;10.70;99.90;;;;;;4996889;28;20209;-87
2023/10/31 05:26:48;;;;;;;0.95;0.95;;;10.70;99.90;;;;;;4996551;28;20229;-87
2023/10/31 05:29:14;;;;;;;1.48;0.85;;;10.70;99.90;;;;;;4997206;28;20253;-87
2023/10/31 05:31:41;;;;;;;1.15;0.88;;;10.70;99.90;;;;;;4997166;28;20176;-87
2023/10/31 05:34:07;;;;;;;1.05;0.82;;;10.60;99.90;;;;;;4997505;28;20183;-87
2023/10/31 05:36:32;;;;;;;1.35;0.70;;;10.50;99.90;;;;;;4996350;28;20186;-87
2023/10/31 05:38:58;;;;;;;1.10;0.90;;;10.40;99.90;;;;;;4996748;28;20222;-86
2023/10/31 05:41:24;;;;;;;1.85;0.85;;;10.30;99.90;;;;;;4996461;28;20203;-86
2023/10/31 05:43:49;;;;;;;1.77;0.70;;;10.20;99.90;;;;;;4996559;28;20266;-86
2023/10/31 05:46:15;;;;;;;1.10;1.10;;;10.10;99.90;;;;;;4996639;28;20658;-87
2023/10/31 05:48:43;;;;;;;1.50;1.20;;;10.00;99.90;;;;;;4996111;28;20200;-87
2023/10/31 05:51:18;;;;;;;1.00;0.90;;;10.00;99.90;;;;;;4996646;28;20648;-86
2023/10/31 05:53:47;;;;;;;1.10;1.10;;;10.00;99.90;;;;;;4996984;28;20189;-87
2023/10/31 05:56:14;;;;;;;1.20;1.05;;;9.90;99.90;;;;;;4996163;28;20795;-86
2023/10/31 05:58:41;;;;;;;1.05;0.88;;;9.90;99.90;;;;;;4996964;28;20579;-86
2023/10/31 06:01:07;;;;;;;1.10;1.05;;;9.90;99.90;;;;;;4996627;28;20199;-86
2023/10/31 06:03:34;;;;;;;1.00;1.00;;;10.00;99.90;;;;;;4996279;28;20274;-86
2023/10/31 06:05:59;;;;;;;3.88;0.98;;;10.10;99.90;;;;;;4996697;28;20703;-86
2023/10/31 06:08:28;;;;;;;1.77;0.80;;;10.10;99.90;;;;;;4996369;28;20225;-86
2023/10/31 06:10:55;;;;;;;1.20;1.10;;;10.10;99.90;;;;;;4996824;28;20187;-87
2023/10/31 06:13:21;;;;;;;2.05;1.00;;;10.00;99.90;;;;;;4996468;28;20179;-87
2023/10/31 06:15:47;;;;;;;1.95;0.90;;;9.90;99.90;;;;;;4995891;28;20188;-88
2023/10/31 06:18:13;;;;;;;2.75;1.17;;;9.90;99.90;;;;;;4995791;28;20203;-87
2023/10/31 06:20:39;;;;;;;1.90;1.00;;;9.90;99.90;;;;;;4996082;28;20195;-87
2023/10/31 06:23:05;;;;;;;2.60;1.10;;;9.90;99.90;;;;;;4996871;28;20186;-87
2023/10/31 06:25:31;;;;;;;1.17;1.10;;;9.80;99.90;;;;;;4996131;28;20176;-87
2023/10/31 06:27:56;;;;;;;1.23;1.00;;;9.80;99.90;;;;;;4996047;28;20285;-87
2023/10/31 06:30:24;;;;;;;1.77;1.25;;;9.90;99.90;;;;;;4996127;28;20171;-87
2023/10/31 06:32:53;;;;;;;1.45;1.10;;;10.00;99.90;;;;;;4995807;28;20191;-87
2023/10/31 06:35:19;;;;;;;1.98;0.90;;;10.00;99.90;;;;;;4995745;28;20546;-87
2023/10/31 06:37:44;;;;;;;2.33;1.00;;;10.10;99.90;;;;;;4995711;28;20196;-87
2023/10/31 06:40:10;;;;;;;3.55;1.00;;;10.10;99.90;;;;;;4996548;28;20184;-87
2023/10/31 06:42:36;;;;;;;2.20;1.13;;;10.20;99.90;;;;;;4996324;28;20274;-87
2023/10/31 06:45:21;;;;;;;2.10;1.30;;;10.20;99.90;;;;;;4999829;28;20257;-87
2023/10/31 06:47:46;;;;;;;1.30;1.30;;;10.30;99.90;;;;;;5000296;28;20572;-87
2023/10/31 06:50:12;;;;;;;3.10;1.48;;;10.40;99.90;;;;;;4999595;28;20298;-87
2023/10/31 06:52:37;;;;;;;1.10;0.80;;;10.40;99.90;;;;;;4999582;28;20183;-87
2023/10/31 06:55:03;;;;;;;2.10;1.50;;;10.30;99.90;;;;;;5000221;28;20179;-87
2023/10/31 06:57:29;;;;;;;1.00;1.00;;;10.30;99.90;;;;;;5000419;28;20179;-86
2023/10/31 06:59:55;;;;;;;1.48;1.02;;;10.30;99.90;;;;;;4999701;28;20179;-87
2023/10/31 07:02:21;;;;;;;1.17;1.15;;;10.30;99.90;;;;;;4998882;28;20204;-87
2023/10/31 07:04:47;;;;;;;1.10;1.10;;;10.40;99.90;;;;;;4998637;28;20194;-87
2023/10/31 07:07:12;;;;;;;1.60;1.50;;;10.40;99.90;;;;;;5000147;28;20168;-86
2023/10/31 07:09:45;;;;;;;1.85;1.27;;;10.40;99.90;;;;;;4999391;28;20202;-89
2023/10/31 07:12:21;;;;;;;2.00;1.23;;;10.40;99.90;;;;;;4999789;28;20644;-89
2023/10/31 07:14:47;;;;;;;1.40;1.25;;;10.40;99.90;;;;;;4999753;28;20617;-89
2023/10/31 07:17:13;;;;;;;2.13;1.10;;;10.40;99.90;;;;;;4998863;28;20176;-89
2023/10/31 07:19:38;;;;;;;1.70;1.00;;;10.40;99.90;;;;;;4999170;28;20207;-89
2023/10/31 07:22:04;;;;;;;2.58;1.20;;;10.40;99.90;;;;;;4999431;28;20199;-89
2023/10/31 07:24:29;;;;;;;1.40;1.30;;;10.40;99.90;;;;;;4999790;28;20222;-89
2023/10/31 07:26:55;;;;;;;2.85;1.20;;;10.40;99.90;;;;;;4999214;28;20180;-89
2023/10/31 07:29:21;;;;;;;1.30;1.20;;;10.50;99.90;;;;;;4998629;28;20341;-89
2023/10/31 07:31:47;;;;;;;10.80;9.80;;;10.50;99.90;;;;;;4999018;28;20207;-90
2023/10/31 07:34:12;;;;;;;10.40;9.50;;;10.50;99.90;;;;;;4998979;28;20187;-89
2023/10/31 07:36:39;;;;;;;10.05;9.13;;;10.60;99.90;;;;;;4998597;28;20179;-89
2023/10/31 07:39:05;;;;;;;116.50;99.82;;;10.60;99.90;;;;;;4998939;28;20231;-89
2023/10/31 07:41:30;;;;;;;12.13;10.15;;;10.60;99.90;;;;;;4998493;28;20266;-87
2023/10/31 07:43:56;;;;;;;6.07;3.28;;;10.60;99.90;;;;;;4999271;28;20176;-90
2023/10/31 07:46:23;;;;;;;4.18;3.15;;;10.60;99.90;;;;;;4998645;28;20180;-89
2023/10/31 07:48:48;;;;;;;2.53;2.33;;;10.60;99.90;;;;;;4998485;28;20199;-89
2023/10/31 07:51:22;;;;;;;3.80;3.60;;;10.50;99.90;;;;;;4998754;28;20207;-89
2023/10/31 07:53:49;;;;;;;2.55;2.35;;;10.60;99.90;;;;;;4998563;28;20175;-89
